Paris, France

21:48 CEST le 23 août 2014 (GMT +0200)
Charles de Gaulle | Change Station
CLOSE
Current Station
Aéroport
Location: Paris / Charles De Gaulle,
Altitude: 367 ft
Stations météo à proximité

Alt. 367 ft 49.02 °N, 2.53 °E | Updated 18 minutes ago

Partly Cloudy
Partiellement nuageux
59 ° F
Paraît 59 ° F
N
8
Vent Variable Vent de Ouest

Aujourd'hui
Haut(e) -- | Bas -- ° F
--% Risque de précip.
Hier
Haut(e) -- | Bas -- ° F
Precip. -- pouce
6:53 AM 8:50 PM
Lune descendante, 3% visible
Pression 30.06 pouce
Visibilité 6.2 Miles terrestres
Nuages Peu 4600 ft
Point de rosée 45 ° F
Humidité 59%
Précipitations 0.00 pouce
Profondeur de la couche neigeuse Non disponible.
UV 0 sur 12
Pollen Non disponible.
Qualité de l'air Non disponible.
Flu Activity Non disponible.
METAR LFPG 231930Z 27007KT 9999 FEW046 15/07 Q1018 NOSIG

More Conditions Fewer Conditions

Pression 30.06 pouce
Visibilité 6.2 Miles terrestres
Nuages Peu 4600 ft
Point de rosée 45 ° F
Humidité 59%
Précipitations 0.00 pouce
Profondeur de la couche neigeuse Non disponible.
UV 0 sur 12
Pollen Non disponible.
Qualité de l'air Non disponible.
Flu Activity Non disponible.
METAR LFPG 231930Z 27007KT 9999 FEW046 15/07 Q1018 NOSIG

More Conditions Fewer Conditions

10-Day Weather Forecast

Almanac

Astronomie

Aug. 23, 2014 Lever Coucher
Temps réel 06:53 CEST 20:50 CEST
Crépuscule civil 06:19 CEST 21:24 CEST
Crépuscule nautique 05:37 CEST 22:06 CEST
Crépuscule astronomique 04:50 CEST 22:53 CEST
Lune 04:51 CEST 19:28 CEST
Durée de lumière visible 15h 05m
Longueur du jour
13h 57m
Tomorrow will be 3m 22s shorter.
Lune descendante, 3% of the Moon is Illuminated
Aujourd'hui
Lune descendante
août 25
Nouveau
Sep 2
Premier quartier
Sep 8
Pleine lune
Sep 15
Dernier quartier

Extrêmes aujourd'hui

Country Highs Country Lows

Community

WunderPhotos

Upload Photos

1,746,583 Photos téléchargées !

WunderBlogs® & News

Nearby

Qualité de l'air

Not available.

Épaisseur de neige

Not available.

Activité sismique

Ville Distance Mag. Time & Date
No recent earthquake activity has been reported nearby.
Minimum magnitude displayed is 2.5.

Températures des eaux côtières

Lieu Température
Aucun rapport de station

Stations météo à proximité